sensor_id;sensor_type;location;lat;lon;timestamp;P1;durP1;ratioP1;P2;durP2;ratioP2
15818;SDS011;8010;53.986;12.106;2023-02-23T00:01:14;15.43;;;4.10;;
15818;SDS011;8010;53.986;12.106;2023-02-23T00:03:42;14.60;;;3.90;;
15818;SDS011;8010;53.986;12.106;2023-02-23T00:06:09;9.07;;;3.90;;
15818;SDS011;8010;53.986;12.106;2023-02-23T00:08:36;10.00;;;3.27;;
15818;SDS011;8010;53.986;12.106;2023-02-23T00:11:05;9.43;;;3.63;;
15818;SDS011;8010;53.986;12.106;2023-02-23T00:13:33;16.03;;;4.20;;
15818;SDS011;8010;53.986;12.106;2023-02-23T00:16:07;7.67;;;3.77;;
15818;SDS011;8010;53.986;12.106;2023-02-23T00:18:36;13.57;;;3.97;;
15818;SDS011;8010;53.986;12.106;2023-02-23T00:21:13;9.03;;;3.40;;
15818;SDS011;8010;53.986;12.106;2023-02-23T00:23:41;10.27;;;3.73;;
15818;SDS011;8010;53.986;12.106;2023-02-23T00:26:07;12.90;;;4.40;;
15818;SDS011;8010;53.986;12.106;2023-02-23T00:28:32;11.07;;;4.37;;
15818;SDS011;8010;53.986;12.106;2023-02-23T00:31:00;15.00;;;4.53;;
15818;SDS011;8010;53.986;12.106;2023-02-23T00:33:26;13.30;;;3.83;;
15818;SDS011;8010;53.986;12.106;2023-02-23T00:35:54;16.47;;;5.13;;
15818;SDS011;8010;53.986;12.106;2023-02-23T00:38:20;13.60;;;5.07;;
15818;SDS011;8010;53.986;12.106;2023-02-23T00:40:45;12.87;;;4.33;;
15818;SDS011;8010;53.986;12.106;2023-02-23T00:43:11;12.43;;;4.20;;
15818;SDS011;8010;53.986;12.106;2023-02-23T00:45:37;12.33;;;4.20;;
15818;SDS011;8010;53.986;12.106;2023-02-23T00:48:02;11.80;;;4.57;;
15818;SDS011;8010;53.986;12.106;2023-02-23T00:50:34;15.03;;;4.97;;
15818;SDS011;8010;53.986;12.106;2023-02-23T00:53:02;13.80;;;4.50;;
15818;SDS011;8010;53.986;12.106;2023-02-23T00:55:28;14.73;;;4.23;;
15818;SDS011;8010;53.986;12.106;2023-02-23T00:57:54;15.47;;;4.60;;
15818;SDS011;8010;53.986;12.106;2023-02-23T01:00:22;13.50;;;3.97;;
15818;SDS011;8010;53.986;12.106;2023-02-23T01:02:49;14.57;;;4.90;;
15818;SDS011;8010;53.986;12.106;2023-02-23T01:05:15;14.87;;;4.70;;
15818;SDS011;8010;53.986;12.106;2023-02-23T01:07:41;16.70;;;4.67;;
15818;SDS011;8010;53.986;12.106;2023-02-23T01:10:10;12.03;;;4.00;;
15818;SDS011;8010;53.986;12.106;2023-02-23T01:12:49;14.60;;;4.73;;
15818;SDS011;8010;53.986;12.106;2023-02-23T01:15:16;14.77;;;5.10;;
15818;SDS011;8010;53.986;12.106;2023-02-23T01:17:42;13.97;;;4.80;;
15818;SDS011;8010;53.986;12.106;2023-02-23T01:20:09;12.37;;;4.87;;
15818;SDS011;8010;53.986;12.106;2023-02-23T01:22:42;12.03;;;4.70;;
15818;SDS011;8010;53.986;12.106;2023-02-23T01:25:08;14.87;;;5.27;;
15818;SDS011;8010;53.986;12.106;2023-02-23T01:27:36;12.70;;;4.80;;
15818;SDS011;8010;53.986;12.106;2023-02-23T01:30:02;14.13;;;4.97;;
15818;SDS011;8010;53.986;12.106;2023-02-23T01:32:29;15.63;;;5.60;;
15818;SDS011;8010;53.986;12.106;2023-02-23T01:34:54;11.40;;;4.47;;
15818;SDS011;8010;53.986;12.106;2023-02-23T01:37:20;11.93;;;4.87;;
15818;SDS011;8010;53.986;12.106;2023-02-23T01:39:45;12.87;;;4.83;;
15818;SDS011;8010;53.986;12.106;2023-02-23T01:42:14;17.43;;;4.93;;
15818;SDS011;8010;53.986;12.106;2023-02-23T01:47:06;11.67;;;4.73;;
15818;SDS011;8010;53.986;12.106;2023-02-23T01:49:32;14.63;;;5.93;;
15818;SDS011;8010;53.986;12.106;2023-02-23T01:52:02;14.83;;;5.37;;
15818;SDS011;8010;53.986;12.106;2023-02-23T01:54:32;12.93;;;5.47;;
15818;SDS011;8010;53.986;12.106;2023-02-23T01:57:02;12.30;;;5.23;;
15818;SDS011;8010;53.986;12.106;2023-02-23T01:59:43;14.60;;;5.57;;
15818;SDS011;8010;53.986;12.106;2023-02-23T02:02:10;12.20;;;6.07;;
15818;SDS011;8010;53.986;12.106;2023-02-23T02:04:38;13.80;;;5.23;;
15818;SDS011;8010;53.986;12.106;2023-02-23T02:07:12;18.33;;;6.13;;
15818;SDS011;8010;53.986;12.106;2023-02-23T02:09:48;15.57;;;6.17;;
15818;SDS011;8010;53.986;12.106;2023-02-23T02:12:48;12.10;;;5.93;;
15818;SDS011;8010;53.986;12.106;2023-02-23T02:15:19;12.33;;;6.10;;
15818;SDS011;8010;53.986;12.106;2023-02-23T02:17:54;16.30;;;5.60;;
15818;SDS011;8010;53.986;12.106;2023-02-23T02:42:52;13.77;;;6.40;;
15818;SDS011;8010;53.986;12.106;2023-02-23T02:45:44;21.67;;;6.27;;
15818;SDS011;8010;53.986;12.106;2023-02-23T02:48:22;14.17;;;6.30;;
15818;SDS011;8010;53.986;12.106;2023-02-23T02:51:19;16.17;;;7.20;;
15818;SDS011;8010;53.986;12.106;2023-02-23T02:53:50;16.57;;;6.40;;
15818;SDS011;8010;53.986;12.106;2023-02-23T02:56:31;18.43;;;6.57;;
15818;SDS011;8010;53.986;12.106;2023-02-23T02:59:04;15.93;;;6.57;;
15818;SDS011;8010;53.986;12.106;2023-02-23T03:01:55;14.67;;;6.27;;
15818;SDS011;8010;53.986;12.106;2023-02-23T03:04:40;15.07;;;6.30;;
15818;SDS011;8010;53.986;12.106;2023-02-23T03:07:26;21.83;;;7.20;;
15818;SDS011;8010;53.986;12.106;2023-02-23T03:13:37;13.93;;;6.93;;
15818;SDS011;8010;53.986;12.106;2023-02-23T03:16:45;15.27;;;6.30;;
15818;SDS011;8010;53.986;12.106;2023-02-23T03:19:36;17.27;;;6.80;;
15818;SDS011;8010;53.986;12.106;2023-02-23T03:22:36;19.80;;;6.83;;
15818;SDS011;8010;53.986;12.106;2023-02-23T03:25:40;14.63;;;6.23;;
15818;SDS011;8010;53.986;12.106;2023-02-23T03:28:32;13.37;;;6.43;;
15818;SDS011;8010;53.986;12.106;2023-02-23T03:31:31;12.27;;;6.47;;
15818;SDS011;8010;53.986;12.106;2023-02-23T03:37:16;17.43;;;7.10;;
15818;SDS011;8010;53.986;12.106;2023-02-23T03:40:15;14.33;;;6.80;;
15818;SDS011;8010;53.986;12.106;2023-02-23T03:43:06;20.40;;;7.77;;
15818;SDS011;8010;53.986;12.106;2023-02-23T03:45:54;15.20;;;6.97;;
15818;SDS011;8010;53.986;12.106;2023-02-23T03:48:41;14.27;;;6.63;;
15818;SDS011;8010;53.986;12.106;2023-02-23T03:51:27;19.43;;;6.90;;
15818;SDS011;8010;53.986;12.106;2023-02-23T03:54:26;16.43;;;6.17;;
15818;SDS011;8010;53.986;12.106;2023-02-23T03:57:18;18.83;;;7.20;;
15818;SDS011;8010;53.986;12.106;2023-02-23T04:00:08;17.93;;;8.03;;
15818;SDS011;8010;53.986;12.106;2023-02-23T04:02:55;20.97;;;7.77;;
15818;SDS011;8010;53.986;12.106;2023-02-23T04:05:41;17.17;;;7.77;;
15818;SDS011;8010;53.986;12.106;2023-02-23T04:08:32;18.13;;;7.57;;
15818;SDS011;8010;53.986;12.106;2023-02-23T04:14:33;16.77;;;6.57;;
15818;SDS011;8010;53.986;12.106;2023-02-23T04:17:03;13.27;;;7.00;;
15818;SDS011;8010;53.986;12.106;2023-02-23T04:19:32;14.67;;;7.50;;
15818;SDS011;8010;53.986;12.106;2023-02-23T04:21:57;16.70;;;7.73;;
15818;SDS011;8010;53.986;12.106;2023-02-23T04:24:23;12.90;;;7.07;;
15818;SDS011;8010;53.986;12.106;2023-02-23T04:26:48;21.83;;;7.67;;
15818;SDS011;8010;53.986;12.106;2023-02-23T04:29:14;19.50;;;6.90;;
15818;SDS011;8010;53.986;12.106;2023-02-23T04:31:39;14.03;;;7.17;;
15818;SDS011;8010;53.986;12.106;2023-02-23T04:34:08;11.97;;;7.00;;
15818;SDS011;8010;53.986;12.106;2023-02-23T04:36:33;24.07;;;8.30;;
15818;SDS011;8010;53.986;12.106;2023-02-23T04:39:00;13.67;;;6.77;;
15818;SDS011;8010;53.986;12.106;2023-02-23T04:41:26;19.13;;;7.30;;
15818;SDS011;8010;53.986;12.106;2023-02-23T04:43:51;15.73;;;7.67;;
15818;SDS011;8010;53.986;12.106;2023-02-23T04:46:17;23.53;;;7.70;;
15818;SDS011;8010;53.986;12.106;2023-02-23T04:48:43;16.67;;;7.47;;
15818;SDS011;8010;53.986;12.106;2023-02-23T04:51:08;17.07;;;7.23;;
15818;SDS011;8010;53.986;12.106;2023-02-23T04:53:34;17.50;;;7.10;;
15818;SDS011;8010;53.986;12.106;2023-02-23T04:55:59;12.73;;;7.40;;
15818;SDS011;8010;53.986;12.106;2023-02-23T04:58:25;16.57;;;7.97;;
15818;SDS011;8010;53.986;12.106;2023-02-23T05:00:51;17.00;;;8.57;;
15818;SDS011;8010;53.986;12.106;2023-02-23T05:03:16;16.60;;;7.77;;
15818;SDS011;8010;53.986;12.106;2023-02-23T05:05:42;17.43;;;9.40;;
15818;SDS011;8010;53.986;12.106;2023-02-23T05:08:08;19.43;;;8.87;;
15818;SDS011;8010;53.986;12.106;2023-02-23T05:10:34;17.40;;;7.47;;
15818;SDS011;8010;53.986;12.106;2023-02-23T05:12:59;14.10;;;6.93;;
15818;SDS011;8010;53.986;12.106;2023-02-23T05:15:25;15.00;;;8.10;;
15818;SDS011;8010;53.986;12.106;2023-02-23T05:17:52;16.13;;;7.30;;
15818;SDS011;8010;53.986;12.106;2023-02-23T05:20:19;12.77;;;8.27;;
15818;SDS011;8010;53.986;12.106;2023-02-23T05:22:45;17.20;;;7.47;;
15818;SDS011;8010;53.986;12.106;2023-02-23T05:25:10;13.13;;;7.33;;
15818;SDS011;8010;53.986;12.106;2023-02-23T05:27:36;18.50;;;7.53;;
15818;SDS011;8010;53.986;12.106;2023-02-23T05:30:03;18.37;;;8.23;;
15818;SDS011;8010;53.986;12.106;2023-02-23T05:32:31;24.90;;;8.17;;
15818;SDS011;8010;53.986;12.106;2023-02-23T05:34:57;20.13;;;7.70;;
15818;SDS011;8010;53.986;12.106;2023-02-23T05:37:23;16.43;;;7.67;;
15818;SDS011;8010;53.986;12.106;2023-02-23T05:39:48;21.70;;;8.73;;
15818;SDS011;8010;53.986;12.106;2023-02-23T05:42:14;17.47;;;7.43;;
15818;SDS011;8010;53.986;12.106;2023-02-23T05:44:39;17.33;;;7.47;;
15818;SDS011;8010;53.986;12.106;2023-02-23T05:47:05;21.90;;;7.50;;
15818;SDS011;8010;53.986;12.106;2023-02-23T05:49:31;14.63;;;6.93;;
15818;SDS011;8010;53.986;12.106;2023-02-23T05:51:56;13.97;;;8.03;;
15818;SDS011;8010;53.986;12.106;2023-02-23T05:54:22;14.97;;;7.40;;
15818;SDS011;8010;53.986;12.106;2023-02-23T05:56:47;13.80;;;7.43;;
15818;SDS011;8010;53.986;12.106;2023-02-23T05:59:13;18.43;;;8.17;;
15818;SDS011;8010;53.986;12.106;2023-02-23T06:01:41;15.33;;;7.13;;
15818;SDS011;8010;53.986;12.106;2023-02-23T06:04:07;20.67;;;7.80;;
15818;SDS011;8010;53.986;12.106;2023-02-23T06:06:32;15.83;;;8.30;;
15818;SDS011;8010;53.986;12.106;2023-02-23T06:08:58;18.60;;;8.00;;
15818;SDS011;8010;53.986;12.106;2023-02-23T06:11:24;16.63;;;8.47;;
15818;SDS011;8010;53.986;12.106;2023-02-23T06:13:49;11.90;;;7.47;;
15818;SDS011;8010;53.986;12.106;2023-02-23T06:16:16;15.90;;;8.57;;
15818;SDS011;8010;53.986;12.106;2023-02-23T06:18:41;19.80;;;8.37;;
15818;SDS011;8010;53.986;12.106;2023-02-23T06:21:07;22.70;;;8.37;;
15818;SDS011;8010;53.986;12.106;2023-02-23T06:23:32;13.83;;;7.33;;
15818;SDS011;8010;53.986;12.106;2023-02-23T06:25:58;15.30;;;7.83;;
15818;SDS011;8010;53.986;12.106;2023-02-23T06:28:24;19.53;;;6.70;;
15818;SDS011;8010;53.986;12.106;2023-02-23T06:30:51;14.90;;;7.10;;
15818;SDS011;8010;53.986;12.106;2023-02-23T06:33:17;19.13;;;6.90;;
15818;SDS011;8010;53.986;12.106;2023-02-23T06:35:43;17.53;;;7.70;;
15818;SDS011;8010;53.986;12.106;2023-02-23T06:38:09;18.20;;;7.53;;
15818;SDS011;8010;53.986;12.106;2023-02-23T06:40:36;14.80;;;7.40;;
15818;SDS011;8010;53.986;12.106;2023-02-23T06:43:02;18.47;;;8.23;;
15818;SDS011;8010;53.986;12.106;2023-02-23T06:45:28;20.03;;;7.70;;
15818;SDS011;8010;53.986;12.106;2023-02-23T06:47:53;17.97;;;8.20;;
15818;SDS011;8010;53.986;12.106;2023-02-23T06:50:19;19.00;;;7.77;;
15818;SDS011;8010;53.986;12.106;2023-02-23T06:52:45;17.17;;;7.57;;
15818;SDS011;8010;53.986;12.106;2023-02-23T06:55:11;17.80;;;7.73;;
15818;SDS011;8010;53.986;12.106;2023-02-23T06:57:37;15.30;;;7.47;;
15818;SDS011;8010;53.986;12.106;2023-02-23T07:00:03;18.27;;;8.17;;
15818;SDS011;8010;53.986;12.106;2023-02-23T07:02:29;17.07;;;7.27;;
15818;SDS011;8010;53.986;12.106;2023-02-23T07:04:55;16.47;;;8.27;;
15818;SDS011;8010;53.986;12.106;2023-02-23T07:07:22;19.27;;;7.83;;
15818;SDS011;8010;53.986;12.106;2023-02-23T07:09:48;17.20;;;8.40;;
15818;SDS011;8010;53.986;12.106;2023-02-23T07:12:13;15.77;;;7.23;;
15818;SDS011;8010;53.986;12.106;2023-02-23T07:14:39;15.53;;;7.83;;
15818;SDS011;8010;53.986;12.106;2023-02-23T07:17:05;22.33;;;8.03;;
15818;SDS011;8010;53.986;12.106;2023-02-23T07:19:31;19.17;;;8.20;;
15818;SDS011;8010;53.986;12.106;2023-02-23T07:21:57;20.27;;;7.77;;
15818;SDS011;8010;53.986;12.106;2023-02-23T07:24:22;15.27;;;7.73;;
15818;SDS011;8010;53.986;12.106;2023-02-23T07:26:48;18.50;;;7.90;;
15818;SDS011;8010;53.986;12.106;2023-02-23T07:29:14;13.97;;;7.57;;
15818;SDS011;8010;53.986;12.106;2023-02-23T07:31:40;13.63;;;7.50;;
15818;SDS011;8010;53.986;12.106;2023-02-23T07:34:06;18.40;;;7.77;;
15818;SDS011;8010;53.986;12.106;2023-02-23T07:36:33;17.50;;;6.87;;
15818;SDS011;8010;53.986;12.106;2023-02-23T07:38:58;21.27;;;8.27;;
15818;SDS011;8010;53.986;12.106;2023-02-23T07:41:24;15.30;;;6.80;;
15818;SDS011;8010;53.986;12.106;2023-02-23T07:43:49;15.80;;;7.47;;
15818;SDS011;8010;53.986;12.106;2023-02-23T07:46:15;19.50;;;7.47;;
15818;SDS011;8010;53.986;12.106;2023-02-23T07:48:41;14.47;;;6.70;;
15818;SDS011;8010;53.986;12.106;2023-02-23T07:51:09;14.97;;;7.87;;
15818;SDS011;8010;53.986;12.106;2023-02-23T07:53:37;20.23;;;7.43;;
15818;SDS011;8010;53.986;12.106;2023-02-23T07:56:03;15.83;;;7.83;;
15818;SDS011;8010;53.986;12.106;2023-02-23T07:58:29;18.00;;;7.73;;
15818;SDS011;8010;53.986;12.106;2023-02-23T08:00:55;17.17;;;8.27;;
15818;SDS011;8010;53.986;12.106;2023-02-23T08:03:21;18.47;;;8.27;;
15818;SDS011;8010;53.986;12.106;2023-02-23T08:05:47;18.97;;;9.67;;
15818;SDS011;8010;53.986;12.106;2023-02-23T08:08:12;14.03;;;7.47;;
15818;SDS011;8010;53.986;12.106;2023-02-23T08:10:38;20.50;;;9.03;;
15818;SDS011;8010;53.986;12.106;2023-02-23T08:13:04;19.67;;;8.10;;
15818;SDS011;8010;53.986;12.106;2023-02-23T08:15:30;21.33;;;8.57;;
15818;SDS011;8010;53.986;12.106;2023-02-23T08:17:55;25.00;;;9.43;;
15818;SDS011;8010;53.986;12.106;2023-02-23T08:20:21;16.20;;;8.40;;
15818;SDS011;8010;53.986;12.106;2023-02-23T08:22:51;20.90;;;9.20;;
15818;SDS011;8010;53.986;12.106;2023-02-23T08:25:18;19.63;;;9.10;;
15818;SDS011;8010;53.986;12.106;2023-02-23T08:27:43;22.23;;;8.50;;
15818;SDS011;8010;53.986;12.106;2023-02-23T08:30:10;20.17;;;8.73;;
15818;SDS011;8010;53.986;12.106;2023-02-23T08:32:38;15.87;;;7.93;;
15818;SDS011;8010;53.986;12.106;2023-02-23T08:35:04;20.03;;;9.00;;
15818;SDS011;8010;53.986;12.106;2023-02-23T08:37:30;16.57;;;8.77;;
15818;SDS011;8010;53.986;12.106;2023-02-23T08:39:56;19.83;;;8.20;;
15818;SDS011;8010;53.986;12.106;2023-02-23T08:42:23;20.97;;;8.73;;
15818;SDS011;8010;53.986;12.106;2023-02-23T08:44:48;18.53;;;7.80;;
15818;SDS011;8010;53.986;12.106;2023-02-23T08:47:14;25.93;;;9.70;;
15818;SDS011;8010;53.986;12.106;2023-02-23T08:49:45;22.63;;;9.20;;
15818;SDS011;8010;53.986;12.106;2023-02-23T08:52:11;19.27;;;8.30;;
15818;SDS011;8010;53.986;12.106;2023-02-23T08:54:37;26.37;;;8.57;;
15818;SDS011;8010;53.986;12.106;2023-02-23T08:57:02;21.27;;;9.83;;
15818;SDS011;8010;53.986;12.106;2023-02-23T08:59:28;17.87;;;9.53;;
15818;SDS011;8010;53.986;12.106;2023-02-23T09:01:53;20.97;;;9.47;;
15818;SDS011;8010;53.986;12.106;2023-02-23T09:04:19;16.20;;;8.80;;
15818;SDS011;8010;53.986;12.106;2023-02-23T09:06:44;17.77;;;8.87;;
15818;SDS011;8010;53.986;12.106;2023-02-23T09:09:11;20.83;;;9.27;;
15818;SDS011;8010;53.986;12.106;2023-02-23T09:11:37;19.13;;;8.53;;
15818;SDS011;8010;53.986;12.106;2023-02-23T09:14:02;23.43;;;9.70;;
15818;SDS011;8010;53.986;12.106;2023-02-23T09:16:28;20.57;;;9.10;;
15818;SDS011;8010;53.986;12.106;2023-02-23T09:18:54;23.40;;;9.60;;
15818;SDS011;8010;53.986;12.106;2023-02-23T09:21:20;28.83;;;9.70;;
15818;SDS011;8010;53.986;12.106;2023-02-23T09:23:49;26.13;;;10.40;;
15818;SDS011;8010;53.986;12.106;2023-02-23T09:26:16;23.90;;;9.83;;
15818;SDS011;8010;53.986;12.106;2023-02-23T09:28:43;25.93;;;11.73;;
15818;SDS011;8010;53.986;12.106;2023-02-23T09:31:10;24.67;;;10.10;;
15818;SDS011;8010;53.986;12.106;2023-02-23T09:33:37;30.77;;;10.73;;
15818;SDS011;8010;53.986;12.106;2023-02-23T09:36:03;26.80;;;10.53;;
15818;SDS011;8010;53.986;12.106;2023-02-23T09:38:40;27.80;;;11.73;;
15818;SDS011;8010;53.986;12.106;2023-02-23T09:44:14;26.37;;;10.87;;
15818;SDS011;8010;53.986;12.106;2023-02-23T09:50:05;30.20;;;11.60;;
15818;SDS011;8010;53.986;12.106;2023-02-23T09:52:42;28.63;;;10.83;;
15818;SDS011;8010;53.986;12.106;2023-02-23T09:55:11;27.93;;;11.30;;
15818;SDS011;8010;53.986;12.106;2023-02-23T09:57:41;34.30;;;11.60;;
15818;SDS011;8010;53.986;12.106;2023-02-23T10:00:33;27.03;;;11.83;;
15818;SDS011;8010;53.986;12.106;2023-02-23T10:03:05;27.67;;;11.50;;
15818;SDS011;8010;53.986;12.106;2023-02-23T10:05:43;34.30;;;11.83;;
15818;SDS011;8010;53.986;12.106;2023-02-23T10:08:21;31.83;;;12.57;;
15818;SDS011;8010;53.986;12.106;2023-02-23T10:10:58;31.20;;;11.03;;
15818;SDS011;8010;53.986;12.106;2023-02-23T10:13:40;25.60;;;11.73;;
15818;SDS011;8010;53.986;12.106;2023-02-23T10:16:37;28.67;;;11.60;;
15818;SDS011;8010;53.986;12.106;2023-02-23T10:19:16;28.33;;;10.40;;
15818;SDS011;8010;53.986;12.106;2023-02-23T10:21:55;27.63;;;12.20;;
15818;SDS011;8010;53.986;12.106;2023-02-23T10:24:39;25.93;;;10.93;;
15818;SDS011;8010;53.986;12.106;2023-02-23T10:27:11;29.13;;;11.10;;
15818;SDS011;8010;53.986;12.106;2023-02-23T10:29:41;27.70;;;12.27;;
15818;SDS011;8010;53.986;12.106;2023-02-23T10:35:04;25.47;;;10.67;;
15818;SDS011;8010;53.986;12.106;2023-02-23T10:37:35;29.87;;;11.57;;
15818;SDS011;8010;53.986;12.106;2023-02-23T10:40:02;25.80;;;11.13;;
15818;SDS011;8010;53.986;12.106;2023-02-23T10:42:30;27.70;;;11.17;;
15818;SDS011;8010;53.986;12.106;2023-02-23T10:44:56;33.20;;;12.07;;
15818;SDS011;8010;53.986;12.106;2023-02-23T10:47:25;32.63;;;11.87;;
15818;SDS011;8010;53.986;12.106;2023-02-23T10:49:54;22.77;;;10.17;;
15818;SDS011;8010;53.986;12.106;2023-02-23T10:52:34;23.87;;;10.93;;
15818;SDS011;8010;53.986;12.106;2023-02-23T10:55:07;21.97;;;9.77;;
15818;SDS011;8010;53.986;12.106;2023-02-23T10:57:47;28.43;;;11.00;;
15818;SDS011;8010;53.986;12.106;2023-02-23T11:02:41;25.93;;;10.93;;
15818;SDS011;8010;53.986;12.106;2023-02-23T11:11:16;26.63;;;11.13;;
15818;SDS011;8010;53.986;12.106;2023-02-23T11:13:49;27.77;;;11.57;;
15818;SDS011;8010;53.986;12.106;2023-02-23T11:16:19;31.50;;;11.10;;
15818;SDS011;8010;53.986;12.106;2023-02-23T11:21:23;28.87;;;10.80;;
15818;SDS011;8010;53.986;12.106;2023-02-23T11:23:52;24.80;;;10.90;;
15818;SDS011;8010;53.986;12.106;2023-02-23T11:26:36;24.27;;;10.23;;
15818;SDS011;8010;53.986;12.106;2023-02-23T11:29:11;23.07;;;10.53;;
15818;SDS011;8010;53.986;12.106;2023-02-23T11:31:49;26.67;;;11.00;;
15818;SDS011;8010;53.986;12.106;2023-02-23T11:34:22;20.30;;;10.10;;
15818;SDS011;8010;53.986;12.106;2023-02-23T11:39:37;33.57;;;11.20;;
15818;SDS011;8010;53.986;12.106;2023-02-23T11:42:25;28.10;;;11.33;;
15818;SDS011;8010;53.986;12.106;2023-02-23T11:45:02;27.73;;;12.13;;
15818;SDS011;8010;53.986;12.106;2023-02-23T11:47:28;29.10;;;11.57;;
15818;SDS011;8010;53.986;12.106;2023-02-23T11:49:55;25.23;;;11.63;;
15818;SDS011;8010;53.986;12.106;2023-02-23T11:52:22;25.67;;;12.13;;
15818;SDS011;8010;53.986;12.106;2023-02-23T11:54:51;26.87;;;10.80;;
15818;SDS011;8010;53.986;12.106;2023-02-23T11:57:21;27.50;;;12.73;;
15818;SDS011;8010;53.986;12.106;2023-02-23T11:59:49;30.07;;;12.83;;
15818;SDS011;8010;53.986;12.106;2023-02-23T12:04:52;24.80;;;11.97;;
15818;SDS011;8010;53.986;12.106;2023-02-23T12:07:32;25.93;;;12.03;;
15818;SDS011;8010;53.986;12.106;2023-02-23T12:10:10;30.60;;;13.07;;
15818;SDS011;8010;53.986;12.106;2023-02-23T12:13:04;29.30;;;13.17;;
15818;SDS011;8010;53.986;12.106;2023-02-23T12:18:44;35.40;;;14.43;;
15818;SDS011;8010;53.986;12.106;2023-02-23T12:21:40;26.37;;;12.67;;
15818;SDS011;8010;53.986;12.106;2023-02-23T12:24:29;31.53;;;13.23;;
15818;SDS011;8010;53.986;12.106;2023-02-23T12:27:00;24.93;;;12.00;;
15818;SDS011;8010;53.986;12.106;2023-02-23T12:29:54;30.00;;;14.37;;
15818;SDS011;8010;53.986;12.106;2023-02-23T12:35:01;34.00;;;14.37;;
15818;SDS011;8010;53.986;12.106;2023-02-23T12:37:44;31.20;;;12.90;;
15818;SDS011;8010;53.986;12.106;2023-02-23T12:40:33;35.53;;;14.17;;
15818;SDS011;8010;53.986;12.106;2023-02-23T12:43:03;28.97;;;13.73;;
15818;SDS011;8010;53.986;12.106;2023-02-23T12:50:52;26.20;;;13.20;;
15818;SDS011;8010;53.986;12.106;2023-02-23T13:04:25;30.93;;;13.13;;
15818;SDS011;8010;53.986;12.106;2023-02-23T13:18:04;24.53;;;11.50;;
15818;SDS011;8010;53.986;12.106;2023-02-23T13:23:33;27.33;;;12.33;;
15818;SDS011;8010;53.986;12.106;2023-02-23T13:29:23;30.10;;;12.37;;
15818;SDS011;8010;53.986;12.106;2023-02-23T13:31:58;31.33;;;13.17;;
15818;SDS011;8010;53.986;12.106;2023-02-23T13:37:28;32.90;;;11.93;;
15818;SDS011;8010;53.986;12.106;2023-02-23T13:53:46;26.20;;;11.60;;
15818;SDS011;8010;53.986;12.106;2023-02-23T13:56:25;25.50;;;11.60;;
15818;SDS011;8010;53.986;12.106;2023-02-23T13:58:54;29.80;;;12.13;;
15818;SDS011;8010;53.986;12.106;2023-02-23T14:04:24;31.87;;;13.33;;
15818;SDS011;8010;53.986;12.106;2023-02-23T14:09:33;31.20;;;13.23;;
15818;SDS011;8010;53.986;12.106;2023-02-23T14:12:02;33.17;;;11.97;;
15818;SDS011;8010;53.986;12.106;2023-02-23T14:19:36;32.87;;;13.63;;
15818;SDS011;8010;53.986;12.106;2023-02-23T14:22:10;31.73;;;13.37;;
15818;SDS011;8010;53.986;12.106;2023-02-23T14:24:38;38.77;;;14.47;;
15818;SDS011;8010;53.986;12.106;2023-02-23T14:32:39;66.47;;;22.10;;
15818;SDS011;8010;53.986;12.106;2023-02-23T14:35:34;76.10;;;23.97;;
15818;SDS011;8010;53.986;12.106;2023-02-23T14:38:02;80.73;;;25.83;;
15818;SDS011;8010;53.986;12.106;2023-02-23T14:40:30;100.23;;;26.90;;
15818;SDS011;8010;53.986;12.106;2023-02-23T14:42:59;92.17;;;27.10;;
15818;SDS011;8010;53.986;12.106;2023-02-23T14:45:28;86.63;;;25.30;;
15818;SDS011;8010;53.986;12.106;2023-02-23T14:48:06;86.37;;;24.13;;
15818;SDS011;8010;53.986;12.106;2023-02-23T14:50:37;96.20;;;27.67;;
15818;SDS011;8010;53.986;12.106;2023-02-23T14:53:03;81.10;;;25.67;;
15818;SDS011;8010;53.986;12.106;2023-02-23T14:55:34;75.73;;;24.23;;
15818;SDS011;8010;53.986;12.106;2023-02-23T15:00:52;78.27;;;24.63;;
15818;SDS011;8010;53.986;12.106;2023-02-23T15:03:18;80.63;;;23.73;;
15818;SDS011;8010;53.986;12.106;2023-02-23T15:05:47;82.27;;;23.90;;
15818;SDS011;8010;53.986;12.106;2023-02-23T15:08:20;68.33;;;22.47;;
15818;SDS011;8010;53.986;12.106;2023-02-23T15:10:49;71.03;;;23.80;;
15818;SDS011;8010;53.986;12.106;2023-02-23T15:13:26;67.20;;;23.77;;
15818;SDS011;8010;53.986;12.106;2023-02-23T15:16:07;72.17;;;22.00;;
15818;SDS011;8010;53.986;12.106;2023-02-23T15:21:54;57.47;;;20.13;;
15818;SDS011;8010;53.986;12.106;2023-02-23T15:24:24;58.63;;;19.40;;
15818;SDS011;8010;53.986;12.106;2023-02-23T15:26:52;60.70;;;20.93;;
15818;SDS011;8010;53.986;12.106;2023-02-23T15:29:20;65.33;;;20.63;;
15818;SDS011;8010;53.986;12.106;2023-02-23T15:31:54;54.67;;;20.30;;
15818;SDS011;8010;53.986;12.106;2023-02-23T15:34:23;50.77;;;17.87;;
15818;SDS011;8010;53.986;12.106;2023-02-23T15:36:57;53.53;;;19.10;;
15818;SDS011;8010;53.986;12.106;2023-02-23T15:39:32;55.80;;;19.23;;
15818;SDS011;8010;53.986;12.106;2023-02-23T15:42:03;53.80;;;18.60;;
15818;SDS011;8010;53.986;12.106;2023-02-23T15:44:33;58.63;;;18.73;;
15818;SDS011;8010;53.986;12.106;2023-02-23T15:47:03;49.20;;;18.30;;
15818;SDS011;8010;53.986;12.106;2023-02-23T15:49:35;54.57;;;19.40;;
15818;SDS011;8010;53.986;12.106;2023-02-23T15:52:07;48.03;;;17.30;;
15818;SDS011;8010;53.986;12.106;2023-02-23T15:54:46;51.63;;;19.17;;
15818;SDS011;8010;53.986;12.106;2023-02-23T15:57:19;48.57;;;16.93;;
15818;SDS011;8010;53.986;12.106;2023-02-23T15:59:50;51.43;;;16.77;;
15818;SDS011;8010;53.986;12.106;2023-02-23T16:02:18;46.83;;;17.73;;
15818;SDS011;8010;53.986;12.106;2023-02-23T16:04:47;45.37;;;16.43;;
15818;SDS011;8010;53.986;12.106;2023-02-23T16:07:18;45.80;;;16.23;;
15818;SDS011;8010;53.986;12.106;2023-02-23T16:09:52;49.80;;;16.20;;
15818;SDS011;8010;53.986;12.106;2023-02-23T16:14:58;53.40;;;16.63;;
15818;SDS011;8010;53.986;12.106;2023-02-23T16:17:40;46.70;;;16.83;;
15818;SDS011;8010;53.986;12.106;2023-02-23T16:22:40;44.70;;;16.00;;
15818;SDS011;8010;53.986;12.106;2023-02-23T16:25:11;48.00;;;16.60;;
15818;SDS011;8010;53.986;12.106;2023-02-23T16:27:39;44.87;;;16.50;;
15818;SDS011;8010;53.986;12.106;2023-02-23T16:33:04;45.77;;;15.50;;
15818;SDS011;8010;53.986;12.106;2023-02-23T16:36:04;38.90;;;14.17;;
15818;SDS011;8010;53.986;12.106;2023-02-23T16:41:24;42.63;;;14.33;;
15818;SDS011;8010;53.986;12.106;2023-02-23T16:43:54;41.60;;;14.33;;
15818;SDS011;8010;53.986;12.106;2023-02-23T16:46:24;44.30;;;15.70;;
15818;SDS011;8010;53.986;12.106;2023-02-23T16:48:53;42.93;;;16.60;;
15818;SDS011;8010;53.986;12.106;2023-02-23T16:51:20;37.97;;;15.77;;
15818;SDS011;8010;53.986;12.106;2023-02-23T16:53:49;42.73;;;15.40;;
15818;SDS011;8010;53.986;12.106;2023-02-23T16:56:16;35.93;;;13.07;;
15818;SDS011;8010;53.986;12.106;2023-02-23T16:58:45;45.70;;;14.67;;
15818;SDS011;8010;53.986;12.106;2023-02-23T17:01:13;39.47;;;15.00;;
15818;SDS011;8010;53.986;12.106;2023-02-23T17:03:40;45.13;;;15.00;;
15818;SDS011;8010;53.986;12.106;2023-02-23T17:06:07;42.43;;;14.90;;
15818;SDS011;8010;53.986;12.106;2023-02-23T17:08:33;40.70;;;14.13;;
15818;SDS011;8010;53.986;12.106;2023-02-23T17:10:59;38.60;;;13.37;;
15818;SDS011;8010;53.986;12.106;2023-02-23T17:13:26;44.00;;;15.90;;
15818;SDS011;8010;53.986;12.106;2023-02-23T17:15:56;41.20;;;13.17;;
15818;SDS011;8010;53.986;12.106;2023-02-23T17:18:23;42.47;;;15.23;;
15818;SDS011;8010;53.986;12.106;2023-02-23T17:20:51;41.87;;;14.23;;